Time;durP1;ratioP1;P1;durP2;ratioP2;P2;SDS_P1;SDS_P2;PMS_P1;PMS_P2;Temp;Humidity;BMP_temperature;BMP_pressure;BME280_temperature;BME280_humidity;BME280_pressure;Samples;Min_cycle;Max_cycle;Signal;HPM_P1;HPM_P2
2022/10/07 00:00:53;;;;;;;;;;;;;;;20.81;54.91;102254.78;7275731;19;155176;-58
2022/10/07 00:03:21;;;;;;;;;;;;;;;20.81;55.38;102256.75;7274673;19;154015;-58
2022/10/07 00:06:00;;;;;;;;;;;;;;;20.79;54.92;102248.63;7272713;19;153719;-58
2022/10/07 00:08:27;;;;;;;;;;;;;;;20.79;54.99;102240.19;7277519;19;153408;-59
2022/10/07 00:10:53;;;;;;;;;;;;;;;20.79;55.32;102240.19;7272379;19;153354;-59
2022/10/07 00:13:22;;;;;;;;;;;;;;;20.78;55.30;102241.31;7275254;19;154956;-59
2022/10/07 00:15:49;;;;;;;;;;;;;;;20.78;55.32;102237.66;7273725;19;152649;-58
2022/10/07 00:18:16;;;;;;;;;;;;;;;20.77;54.89;102242.44;7273190;19;152579;-59
2022/10/07 00:20:42;;;;;;;;;;;;;;;20.76;54.96;102232.31;7271621;19;155307;-58
2022/10/07 00:23:09;;;;;;;;;;;;;;;20.76;55.00;102234.28;7283250;19;153089;-58
2022/10/07 00:25:39;;;;;;;;;;;;;;;20.74;55.44;102240.19;7269974;19;154380;-59
2022/10/07 00:28:05;;;;;;;;;;;;;;;20.74;55.42;102234.56;7274573;19;153150;-59
2022/10/07 00:30:32;;;;;;;;;;;;;;;20.75;55.23;102235.41;7270179;19;153185;-59
2022/10/07 00:32:59;;;;;;;;;;;;;;;20.74;55.22;102228.97;7273834;19;153497;-58
2022/10/07 00:35:26;;;;;;;;;;;;;;;20.74;55.25;102222.50;7272100;19;153145;-58
2022/10/07 00:37:53;;;;;;;;;;;;;;;20.73;55.38;102230.06;7274788;19;152836;-58
2022/10/07 00:40:19;;;;;;;;;;;;;;;20.72;55.38;102225.56;7273947;19;153803;-58
2022/10/07 00:42:46;;;;;;;;;;;;;;;20.73;55.00;102220.78;7276579;19;152434;-58
2022/10/07 00:45:14;;;;;;;;;;;;;;;20.71;55.49;102218.28;7282314;19;152799;-59
2022/10/07 00:47:44;;;;;;;;;;;;;;;20.72;55.18;102214.34;7279284;19;152046;-58
2022/10/07 00:50:14;;;;;;;;;;;;;;;20.70;55.19;102210.97;7275830;19;153803;-58
2022/10/07 00:52:59;;;;;;;;;;;;;;;20.71;55.32;102214.63;7270040;19;153382;-58
2022/10/07 00:55:30;;;;;;;;;;;;;;;20.70;55.14;102202.56;7278107;19;152367;-58
2022/10/07 00:57:59;;;;;;;;;;;;;;;20.69;55.27;102208.44;7274646;19;153957;-59
2022/10/07 01:00:26;;;;;;;;;;;;;;;20.70;55.18;102212.94;7270921;19;153832;-59
2022/10/07 01:02:52;;;;;;;;;;;;;;;20.69;55.54;102208.44;7277009;19;153587;-59
2022/10/07 01:05:19;;;;;;;;;;;;;;;20.68;55.63;102213.22;7276366;19;153357;-59
2022/10/07 01:07:49;;;;;;;;;;;;;;;20.68;55.31;102203.94;7283942;19;153408;-59
2022/10/07 01:10:18;;;;;;;;;;;;;;;20.68;55.34;102201.13;7276566;19;154714;-59
2022/10/07 01:12:45;;;;;;;;;;;;;;;20.67;55.52;102199.47;7274714;19;153244;-59
2022/10/07 01:15:31;;;;;;;;;;;;;;;20.66;55.37;102203.38;7274414;19;153483;-58
2022/10/07 01:18:00;;;;;;;;;;;;;;;20.66;55.65;102200.59;7276316;19;153080;-59
2022/10/07 01:20:30;;;;;;;;;;;;;;;20.65;55.34;102191.31;7274225;19;153905;-59
2022/10/07 01:23:27;;;;;;;;;;;;;;;20.66;55.66;102186.53;7279573;19;152360;-59
2022/10/07 01:26:12;;;;;;;;;;;;;;;20.66;55.38;102189.34;7275422;19;152641;-58
2022/10/07 01:28:39;;;;;;;;;;;;;;;20.68;55.52;102184.28;7276359;19;154316;-60
2022/10/07 01:31:09;;;;;;;;;;;;;;;20.67;55.52;102174.19;7282210;19;153383;-59
2022/10/07 01:33:37;;;;;;;;;;;;;;;20.67;55.89;102172.19;7275996;19;153444;-59
2022/10/07 01:36:08;;;;;;;;;;;;;;;20.65;55.62;102171.66;7276778;19;152932;-59
2022/10/07 01:38:36;;;;;;;;;;;;;;;20.65;55.41;102174.47;7275098;19;153112;-59
2022/10/07 01:41:05;;;;;;;;;;;;;;;20.64;55.47;102161.53;7272232;19;154615;-59
2022/10/07 01:43:32;;;;;;;;;;;;;;;20.65;55.59;102160.41;7283789;19;152056;-59
2022/10/07 01:45:59;;;;;;;;;;;;;;;20.64;55.93;102149.47;7282159;19;153254;-59
2022/10/07 01:48:26;;;;;;;;;;;;;;;20.61;55.76;102148.06;7281900;19;152834;-59
2022/10/07 01:50:54;;;;;;;;;;;;;;;20.62;55.66;102151.72;7286641;19;152673;-58
2022/10/07 01:53:38;;;;;;;;;;;;;;;20.61;55.90;102148.06;7280534;19;154298;-59
2022/10/07 01:56:05;;;;;;;;;;;;;;;20.61;55.93;102134.03;7282835;19;152660;-58
2022/10/07 01:58:44;;;;;;;;;;;;;;;20.60;55.99;102129.53;7287245;19;152602;-58
2022/10/07 02:01:31;;;;;;;;;;;;;;;20.61;55.69;102128.41;7283237;19;153842;-59
2022/10/07 02:04:28;;;;;;;;;;;;;;;20.59;56.18;102121.38;7282047;19;153274;-58
2022/10/07 02:07:04;;;;;;;;;;;;;;;20.58;55.85;102119.72;7283830;19;153415;-58
2022/10/07 02:09:34;;;;;;;;;;;;;;;20.58;55.95;102120.53;7281612;19;153974;-58
2022/10/07 02:12:06;;;;;;;;;;;;;;;20.57;56.40;102116.06;7282523;19;152308;-59
2022/10/07 02:14:39;;;;;;;;;;;;;;;20.57;55.87;102110.44;7289913;19;153096;-58
2022/10/07 02:17:11;;;;;;;;;;;;;;;20.57;56.00;102109.59;7284386;19;151796;-59
2022/10/07 02:19:42;;;;;;;;;;;;;;;20.57;56.50;102103.97;7282221;19;153834;-59
2022/10/07 02:22:10;;;;;;;;;;;;;;;20.55;55.92;102098.63;7284550;19;153678;-58
2022/10/07 02:24:38;;;;;;;;;;;;;;;20.55;56.08;102090.22;7282651;19;152149;-59
2022/10/07 02:27:06;;;;;;;;;;;;;;;20.55;56.72;102090.22;7283447;19;154366;-59
2022/10/07 02:29:34;;;;;;;;;;;;;;;20.55;56.27;102092.16;7282246;19;153593;-59
2022/10/07 02:32:04;;;;;;;;;;;;;;;20.56;56.29;102082.63;7283905;19;152937;-59
2022/10/07 02:34:31;;;;;;;;;;;;;;;20.55;56.63;102080.94;7281827;19;154402;-58
2022/10/07 02:37:00;;;;;;;;;;;;;;;20.54;56.59;102071.66;7291745;19;153555;-60
2022/10/07 02:39:27;;;;;;;;;;;;;;;20.54;56.23;102076.44;7283272;19;153404;-59
2022/10/07 02:41:57;;;;;;;;;;;;;;;20.54;56.69;102068.00;7280433;19;154166;-58
2022/10/07 02:44:29;;;;;;;;;;;;;;;20.53;56.38;102070.00;7281647;19;152536;-58
2022/10/07 02:46:55;;;;;;;;;;;;;;;20.52;56.56;102068.31;7283379;19;152231;-58
2022/10/07 02:49:23;;;;;;;;;;;;;;;20.51;56.69;102055.41;7281577;19;154257;-58
2022/10/07 02:52:01;;;;;;;;;;;;;;;20.51;56.32;102055.41;7283361;19;152230;-58
2022/10/07 02:54:34;;;;;;;;;;;;;;;20.51;56.83;102058.19;7277620;19;153033;-59
2022/10/07 02:57:02;;;;;;;;;;;;;;;20.51;56.56;102049.78;7277222;19;152779;-58
2022/10/07 02:59:29;;;;;;;;;;;;;;;20.50;56.34;102042.47;7289253;19;152292;-58
2022/10/07 03:01:59;;;;;;;;;;;;;;;20.50;56.32;102036.00;7282317;19;153701;-58
2022/10/07 03:04:26;;;;;;;;;;;;;;;20.52;56.64;102033.78;7280805;19;152372;-59
2022/10/07 03:06:54;;;;;;;;;;;;;;;20.50;56.43;102028.44;7284478;19;153628;-58
2022/10/07 03:09:21;;;;;;;;;;;;;;;20.51;56.38;102026.47;7281813;19;153400;-58
2022/10/07 03:11:48;;;;;;;;;;;;;;;20.49;56.90;102023.13;7280864;19;153069;-58
2022/10/07 03:14:14;;;;;;;;;;;;;;;20.48;56.76;102018.63;7283310;19;153344;-58
2022/10/07 03:16:41;;;;;;;;;;;;;;;20.48;56.80;102019.47;7279124;19;154519;-57
2022/10/07 03:19:09;;;;;;;;;;;;;;;20.48;56.62;102025.09;7282259;19;152495;-58
2022/10/07 03:21:36;;;;;;;;;;;;;;;20.47;56.66;102014.97;7288997;19;154124;-57
2022/10/07 03:24:03;;;;;;;;;;;;;;;20.48;56.88;102027.91;7283777;19;151898;-58
2022/10/07 03:26:31;;;;;;;;;;;;;;;20.48;56.78;102022.28;7281373;19;154880;-57
2022/10/07 03:28:58;;;;;;;;;;;;;;;20.46;57.15;102018.91;7281191;19;153962;-58
2022/10/07 03:31:26;;;;;;;;;;;;;;;20.46;56.92;102021.72;7278746;19;153309;-58
2022/10/07 03:33:54;;;;;;;;;;;;;;;20.46;57.07;102012.44;7281966;19;154009;-58
2022/10/07 03:36:21;;;;;;;;;;;;;;;20.45;57.31;102007.94;7281076;19;154371;-58
2022/10/07 03:38:48;;;;;;;;;;;;;;;20.46;56.95;102002.06;7283701;19;152129;-59
2022/10/07 03:41:16;;;;;;;;;;;;;;;20.46;56.95;102004.00;7279950;19;153806;-58
2022/10/07 03:43:43;;;;;;;;;;;;;;;20.45;57.36;102000.38;7289891;19;153471;-58
2022/10/07 03:46:09;;;;;;;;;;;;;;;20.45;57.10;102000.38;7281154;19;153545;-58
2022/10/07 03:48:36;;;;;;;;;;;;;;;20.45;57.10;102000.38;7282505;19;153909;-58
2022/10/07 03:51:02;;;;;;;;;;;;;;;20.44;57.56;102001.50;7279193;19;152525;-58
2022/10/07 03:53:29;;;;;;;;;;;;;;;20.44;57.14;101992.25;7280190;19;154219;-59
2022/10/07 03:55:56;;;;;;;;;;;;;;;20.44;57.61;101992.25;7272966;19;153577;-58
2022/10/07 03:58:23;;;;;;;;;;;;;;;20.44;57.66;102003.47;7283141;19;151927;-59
2022/10/07 04:00:49;;;;;;;;;;;;;;;20.43;57.67;101988.59;7279894;19;153128;-59
2022/10/07 04:03:17;;;;;;;;;;;;;;;20.44;57.56;101989.44;7289065;19;153822;-58
2022/10/07 04:05:54;;;;;;;;;;;;;;;20.44;57.45;101997.84;7279475;19;154094;-59
2022/10/07 04:08:20;;;;;;;;;;;;;;;20.42;57.58;101989.72;7281706;19;153847;-58
2022/10/07 04:10:47;;;;;;;;;;;;;;;20.43;57.56;101991.41;7278811;19;152088;-59
2022/10/07 04:13:14;;;;;;;;;;;;;;;20.42;57.35;101992.53;7279453;19;153768;-58
2022/10/07 04:15:40;;;;;;;;;;;;;;;20.42;57.36;101986.91;7279004;19;155023;-58
2022/10/07 04:18:09;;;;;;;;;;;;;;;20.42;57.41;101984.09;7279058;19;152579;-58
2022/10/07 04:20:38;;;;;;;;;;;;;;;20.41;57.56;101979.59;7280025;19;153876;-58
2022/10/07 04:23:05;;;;;;;;;;;;;;;20.42;57.65;101984.09;7280623;19;153933;-58
2022/10/07 04:25:35;;;;;;;;;;;;;;;20.40;57.58;101980.72;7287891;19;152180;-58
2022/10/07 04:28:03;;;;;;;;;;;;;;;20.41;57.90;101982.41;7280036;19;154779;-58
2022/10/07 04:30:33;;;;;;;;;;;;;;;20.40;57.78;101977.91;7280692;19;152585;-58
2022/10/07 04:33:01;;;;;;;;;;;;;;;20.40;57.63;101975.09;7279508;19;154693;-58
2022/10/07 04:35:28;;;;;;;;;;;;;;;20.40;57.60;101970.34;7277667;19;153960;-58
2022/10/07 04:37:55;;;;;;;;;;;;;;;20.39;58.09;101965.88;7282103;19;152725;-58
2022/10/07 04:40:22;;;;;;;;;;;;;;;20.39;58.21;101963.06;7277634;19;153673;-58
2022/10/07 04:45:35;;;;;;;;;;;;;;;20.39;58.07;101956.59;7279959;19;152994;-58
2022/10/07 04:48:07;;;;;;;;;;;;;;;20.38;57.73;101960.53;7286816;19;153625;-58
2022/10/07 04:50:37;;;;;;;;;;;;;;;20.38;57.89;101960.53;7277759;19;152290;-58
2022/10/07 04:53:08;;;;;;;;;;;;;;;20.37;57.73;101950.41;7279978;19;152748;-59
2022/10/07 04:55:39;;;;;;;;;;;;;;;20.37;57.84;101954.06;7273945;19;153621;-59
2022/10/07 04:58:06;;;;;;;;;;;;;;;20.37;58.17;101958.84;7281238;19;151875;-58
2022/10/07 05:00:32;;;;;;;;;;;;;;;20.37;58.16;101948.44;7278930;19;153319;-58
2022/10/07 05:03:00;;;;;;;;;;;;;;;20.37;58.01;101956.03;7279541;19;154150;-60
2022/10/07 05:05:27;;;;;;;;;;;;;;;20.36;58.07;101949.56;7277225;19;152252;-58
2022/10/07 05:07:54;;;;;;;;;;;;;;;20.37;58.19;101944.81;7280521;19;153549;-61
2022/10/07 05:10:21;;;;;;;;;;;;;;;20.36;58.09;101948.72;7284704;19;154597;-59
2022/10/07 05:12:47;;;;;;;;;;;;;;;20.36;58.02;101946.75;7278256;19;152498;-58
2022/10/07 05:15:21;;;;;;;;;;;;;;;20.36;58.24;101946.75;7275755;19;154218;-60
2022/10/07 05:17:48;;;;;;;;;;;;;;;20.34;58.33;101943.41;7283356;19;152677;-61
2022/10/07 05:20:14;;;;;;;;;;;;;;;20.36;58.31;101946.75;7283310;19;153301;-60
2022/10/07 05:22:41;;;;;;;;;;;;;;;20.36;58.35;101941.16;7286910;19;153469;-59
2022/10/07 05:25:08;;;;;;;;;;;;;;;20.35;58.47;101935.84;7284647;19;152317;-58
2022/10/07 05:27:34;;;;;;;;;;;;;;;20.36;58.26;101937.50;7285733;19;152761;-58
2022/10/07 05:30:01;;;;;;;;;;;;;;;20.35;58.26;101928.22;7284348;19;153565;-58
2022/10/07 05:32:28;;;;;;;;;;;;;;;20.35;58.70;101927.41;7292991;19;152524;-58
2022/10/07 05:34:54;;;;;;;;;;;;;;;20.34;58.61;101923.78;7282187;19;153323;-60
2022/10/07 05:37:21;;;;;;;;;;;;;;;20.35;58.50;101921.81;7287098;19;151807;-58
2022/10/07 05:39:48;;;;;;;;;;;;;;;20.34;58.35;101922.94;7283349;19;154159;-58
2022/10/07 05:42:15;;;;;;;;;;;;;;;20.35;58.71;101924.63;7282889;19;153802;-58
2022/10/07 05:44:42;;;;;;;;;;;;;;;20.34;58.71;101918.16;7285286;19;152205;-59
2022/10/07 05:47:08;;;;;;;;;;;;;;;20.35;58.88;101925.44;7284796;19;152999;-60
2022/10/07 05:49:35;;;;;;;;;;;;;;;20.34;58.68;101923.78;7282952;19;154217;-58
2022/10/07 05:52:02;;;;;;;;;;;;;;;20.34;58.62;101914.50;7285306;19;154068;-58
2022/10/07 05:54:29;;;;;;;;;;;;;;;20.34;58.69;101915.34;7291306;19;152793;-58
2022/10/07 05:56:56;;;;;;;;;;;;;;;20.39;58.92;101903.28;7284476;19;153111;-58
2022/10/07 05:59:23;;;;;;;;;;;;;;;20.41;59.75;101910.28;7284481;19;153453;-58
2022/10/07 06:01:56;;;;;;;;;;;;;;;20.44;60.41;101914.50;7283920;19;154393;-58
2022/10/07 06:04:23;;;;;;;;;;;;;;;20.49;60.38;101913.63;7283342;19;151796;-59
2022/10/07 06:06:49;;;;;;;;;;;;;;;20.53;60.78;101909.97;7284881;19;152728;-59
2022/10/07 06:14:48;;;;;;;;;;;;;;;20.66;60.46;101912.19;7290843;19;152918;-58
2022/10/07 06:17:15;;;;;;;;;;;;;;;20.70;60.72;101902.06;7284502;19;152835;-59
2022/10/07 06:19:42;;;;;;;;;;;;;;;20.72;59.93;101894.16;7281429;19;154135;-59
2022/10/07 06:22:10;;;;;;;;;;;;;;;20.77;59.59;101891.34;7284949;19;154816;-59
2022/10/07 06:24:36;;;;;;;;;;;;;;;20.80;59.75;101899.19;7285061;19;152801;-60
2022/10/07 06:27:03;;;;;;;;;;;;;;;20.82;59.99;101894.13;7280877;19;154134;-60
2022/10/07 06:29:30;;;;;;;;;;;;;;;20.86;59.73;101897.19;7282085;19;154082;-60
2022/10/07 06:31:56;;;;;;;;;;;;;;;20.89;59.69;101893.00;7283657;19;153405;-60
2022/10/07 06:34:23;;;;;;;;;;;;;;;20.91;59.66;101890.72;7280859;19;153062;-60
2022/10/07 06:36:49;;;;;;;;;;;;;;;20.92;59.42;101898.88;7290968;19;153356;-60
2022/10/07 06:39:16;;;;;;;;;;;;;;;20.95;59.12;101887.03;7282411;19;152840;-59
2022/10/07 06:41:43;;;;;;;;;;;;;;;20.97;58.96;101892.38;7280681;19;152559;-59
2022/10/07 06:44:10;;;;;;;;;;;;;;;20.98;58.91;101896.88;7283479;19;153757;-59
2022/10/07 06:46:37;;;;;;;;;;;;;;;21.00;59.11;101894.59;7284016;19;153465;-59
2022/10/07 06:49:03;;;;;;;;;;;;;;;21.01;58.88;101890.66;7282473;19;153955;-59
2022/10/07 06:51:30;;;;;;;;;;;;;;;21.01;58.61;101896.28;7282202;19;154086;-60
2022/10/07 06:53:57;;;;;;;;;;;;;;;21.02;58.65;101892.34;7282202;19;152920;-58
2022/10/07 06:56:24;;;;;;;;;;;;;;;21.00;58.14;101897.41;7280756;19;154517;-60
2022/10/07 06:58:50;;;;;;;;;;;;;;;20.97;57.39;101895.19;7292775;19;151927;-60
2022/10/07 07:01:17;;;;;;;;;;;;;;;20.92;57.64;101883.97;7281401;19;154080;-60
2022/10/07 07:03:44;;;;;;;;;;;;;;;20.89;57.32;101893.84;7282900;19;152370;-60
2022/10/07 07:06:11;;;;;;;;;;;;;;;20.82;57.43;101896.09;7281097;19;153272;-60
2022/10/07 07:08:39;;;;;;;;;;;;;;;20.80;57.46;101895.56;7282533;19;153431;-60
2022/10/07 07:13:56;;;;;;;;;;;;;;;20.78;57.23;101893.03;7281458;19;153813;-60
2022/10/07 07:16:23;;;;;;;;;;;;;;;20.77;57.43;101902.56;7281057;19;154451;-60
2022/10/07 07:18:51;;;;;;;;;;;;;;;20.76;56.97;101908.47;7280588;19;152992;-61
2022/10/07 07:21:20;;;;;;;;;;;;;;;20.72;57.28;101899.78;7289645;19;153637;-60
2022/10/07 07:23:48;;;;;;;;;;;;;;;20.71;56.97;101898.13;7283328;19;152515;-59
2022/10/07 07:26:17;;;;;;;;;;;;;;;20.71;57.18;101895.31;7282576;19;153351;-59
2022/10/07 07:28:49;;;;;;;;;;;;;;;20.73;57.12;101895.84;7281700;19;154540;-60
2022/10/07 07:31:15;;;;;;;;;;;;;;;20.77;56.96;101898.91;7279893;19;153137;-59
2022/10/07 07:33:42;;;;;;;;;;;;;;;20.80;57.30;101899.19;7281742;19;153610;-59
2022/10/07 07:36:14;;;;;;;;;;;;;;;20.76;57.35;101891.63;7281842;19;153994;-58
2022/10/07 07:38:41;;;;;;;;;;;;;;;20.79;57.35;101894.72;7283548;19;152211;-58
2022/10/07 07:41:09;;;;;;;;;;;;;;;20.83;57.33;101889.34;7278070;19;152485;-57
2022/10/07 07:43:36;;;;;;;;;;;;;;;20.88;57.41;101889.34;7290261;19;153917;-57
2022/10/07 07:46:03;;;;;;;;;;;;;;;20.89;57.61;101891.03;7279684;19;153100;-59
2022/10/07 07:48:30;;;;;;;;;;;;;;;20.92;57.44;101886.78;7281112;19;153702;-59
2022/10/07 07:50:57;;;;;;;;;;;;;;;20.93;57.19;101889.31;7276768;19;152231;-59
2022/10/07 07:53:23;;;;;;;;;;;;;;;20.94;57.36;101885.34;7282154;19;153534;-59
2022/10/07 07:55:51;;;;;;;;;;;;;;;20.94;57.56;101878.91;7279271;19;154152;-59
2022/10/07 07:58:18;;;;;;;;;;;;;;;20.96;57.57;101888.72;7280679;19;152305;-59
2022/10/07 08:00:45;;;;;;;;;;;;;;;20.96;57.64;101871.03;7279761;19;152352;-59
2022/10/07 08:03:11;;;;;;;;;;;;;;;20.99;57.89;101887.28;7280225;19;154380;-59
2022/10/07 08:05:38;;;;;;;;;;;;;;;21.03;57.88;101885.63;7288343;19;152558;-59
2022/10/07 08:08:04;;;;;;;;;;;;;;;21.06;57.63;101890.66;7278884;19;153479;-58
2022/10/07 08:10:31;;;;;;;;;;;;;;;21.09;57.80;101885.28;7280127;19;153666;-58
2022/10/07 08:12:58;;;;;;;;;;;;;;;21.14;57.47;101876.84;7280483;19;153561;-54
2022/10/07 08:15:24;;;;;;;;;;;;;;;21.23;57.48;101874.28;7275872;19;152669;-64
2022/10/07 08:17:52;;;;;;;;;;;;;;;21.24;57.45;101887.19;7280776;19;151636;-58
2022/10/07 08:20:19;;;;;;;;;;;;;;;21.29;57.06;101876.78;7275139;19;153310;-57
2022/10/07 08:22:46;;;;;;;;;;;;;;;21.30;57.13;101872.00;7282059;19;154313;-59
2022/10/07 08:25:14;;;;;;;;;;;;;;;21.34;57.46;101869.44;7286178;19;152748;-58
2022/10/07 08:27:40;;;;;;;;;;;;;;;21.33;57.51;101865.78;7274423;19;153939;-59
2022/10/07 08:30:07;;;;;;;;;;;;;;;21.40;57.31;101866.28;7275710;19;152147;-59
2022/10/07 08:32:34;;;;;;;;;;;;;;;21.38;57.09;101865.75;7281091;19;153528;-59
2022/10/07 08:35:00;;;;;;;;;;;;;;;21.40;57.18;101869.09;7276235;19;153831;-59
2022/10/07 08:37:27;;;;;;;;;;;;;;;21.43;57.00;101864.88;7281621;19;152782;-58
2022/10/07 08:39:54;;;;;;;;;;;;;;;21.44;56.83;101869.38;7279903;19;155803;-59
2022/10/07 08:42:26;;;;;;;;;;;;;;;21.42;56.80;101866.00;7277807;19;154424;-59
2022/10/07 08:44:53;;;;;;;;;;;;;;;21.41;56.89;101859.53;7278435;19;152285;-59
2022/10/07 08:47:33;;;;;;;;;;;;;;;21.42;56.87;101857.56;7284485;19;154153;-59
2022/10/07 08:50:21;;;;;;;;;;;;;;;21.42;56.76;101849.97;7279303;19;153125;-59
2022/10/07 08:53:03;;;;;;;;;;;;;;;21.43;56.42;101842.38;7284301;19;153272;-59
2022/10/07 08:55:32;;;;;;;;;;;;;;;21.44;56.26;101839.25;7283579;19;154101;-59
2022/10/07 08:58:18;;;;;;;;;;;;;;;21.45;56.12;101831.66;7286279;19;152215;-59
2022/10/07 09:01:13;;;;;;;;;;;;;;;21.46;56.19;101825.75;7283288;19;154212;-59
2022/10/07 09:03:58;;;;;;;;;;;;;;;21.49;55.86;101832.75;7277818;19;153696;-59
2022/10/07 09:06:57;;;;;;;;;;;;;;;21.53;55.75;101815.00;7284540;19;152194;-58
2022/10/07 09:09:47;;;;;;;;;;;;;;;21.52;56.03;101820.94;7284397;19;153461;-59
2022/10/07 09:12:21;;;;;;;;;;;;;;;21.52;56.09;101827.41;7293638;19;153554;-59
2022/10/07 09:14:51;;;;;;;;;;;;;;;21.53;55.77;101820.63;7284797;19;152113;-59
2022/10/07 09:17:21;;;;;;;;;;;;;;;21.53;55.93;101808.56;7286084;19;154410;-59
2022/10/07 09:19:51;;;;;;;;;;;;;;;21.55;55.74;101811.91;7284052;19;154473;-60
2022/10/07 09:22:20;;;;;;;;;;;;;;;21.55;55.88;101812.75;7286574;19;154009;-59
2022/10/07 09:24:48;;;;;;;;;;;;;;;21.55;55.28;101804.31;7282987;19;153627;-57
2022/10/07 09:27:15;;;;;;;;;;;;;;;21.58;55.13;101811.31;7284007;19;152788;-57
2022/10/07 09:29:43;;;;;;;;;;;;;;;21.58;55.51;101805.69;7285779;19;153198;-58
2022/10/07 09:32:14;;;;;;;;;;;;;;;21.59;55.50;101811.03;7284463;19;153401;-59
2022/10/07 09:34:40;;;;;;;;;;;;;;;21.58;55.39;101811.31;7289684;19;152260;-59
2022/10/07 09:37:10;;;;;;;;;;;;;;;21.60;55.46;101809.06;7285563;19;153751;-59
2022/10/07 09:39:37;;;;;;;;;;;;;;;21.70;56.76;101798.56;7285511;19;152216;-56
2022/10/07 09:42:06;;;;;;;;;;;;;;;21.90;57.14;101793.84;7282423;19;152663;-58
2022/10/07 09:44:33;;;;;;;;;;;;;;;21.99;56.26;101790.13;7282928;19;154426;-58
2022/10/07 09:47:12;;;;;;;;;;;;;;;22.02;55.84;101786.72;7283951;19;152053;-58
2022/10/07 09:49:45;;;;;;;;;;;;;;;22.03;55.45;101779.94;7281293;19;153494;-59
2022/10/07 09:52:22;;;;;;;;;;;;;;;22.03;55.42;101785.56;7253775;19;158061;-58
2022/10/07 09:54:50;;;;;;;;;;;;;;;22.03;55.33;101771.50;7272979;19;154021;-58
2022/10/07 09:57:25;;;;;;;;;;;;;;;22.03;54.83;101767.88;7289143;19;154443;-58
2022/10/07 10:00:12;;;;;;;;;;;;;;;22.04;54.92;101763.88;7283117;19;152854;-59
2022/10/07 10:02:40;;;;;;;;;;;;;;;22.01;54.73;101768.16;7280658;19;153169;-58
2022/10/07 10:05:18;;;;;;;;;;;;;;;22.00;54.74;101768.44;7280439;19;153707;-58
2022/10/07 10:07:46;;;;;;;;;;;;;;;21.99;54.87;101761.13;7281719;19;152863;-58
2022/10/07 10:10:14;;;;;;;;;;;;;;;21.98;54.78;101753.84;7282649;19;153617;-59
2022/10/07 10:12:45;;;;;;;;;;;;;;;21.96;55.07;101758.94;7281147;19;154869;-58
2022/10/07 10:15:35;;;;;;;;;;;;;;;21.96;54.70;101750.47;7277154;19;153045;-58
2022/10/07 10:18:02;;;;;;;;;;;;;;;21.95;54.70;101751.63;7277101;19;153953;-58
2022/10/07 10:20:42;;;;;;;;;;;;;;;21.92;54.48;101741.78;7275996;19;152283;-58
2022/10/07 10:23:27;;;;;;;;;;;;;;;21.89;54.49;101739.56;7273802;19;153630;-59
2022/10/07 10:29:16;;;;;;;;;;;;;;;21.85;54.87;101746.09;7279728;19;153036;-59
2022/10/07 10:32:21;;;;;;;;;;;;;;;21.83;54.35;101745.53;7275140;19;152681;-58
2022/10/07 10:34:53;;;;;;;;;;;;;;;21.79;54.86;101736.03;7274167;19;152792;-59
2022/10/07 10:37:41;;;;;;;;;;;;;;;21.76;54.79;101728.19;7280693;19;152123;-59
2022/10/07 10:40:13;;;;;;;;;;;;;;;21.73;54.53;101736.06;7278838;19;153563;-58
2022/10/07 10:42:51;;;;;;;;;;;;;;;21.70;54.73;101728.25;7281129;19;154718;-58
2022/10/07 10:45:21;;;;;;;;;;;;;;;21.68;54.96;101733.31;7276621;19;153613;-58
2022/10/07 10:47:56;;;;;;;;;;;;;;;21.66;54.61;101729.97;7272168;19;155820;-58
2022/10/07 10:50:41;;;;;;;;;;;;;;;21.64;54.71;101731.38;7277160;19;153179;-59
2022/10/07 10:53:18;;;;;;;;;;;;;;;21.62;54.85;101723.22;7276023;19;153138;-58
2022/10/07 10:55:48;;;;;;;;;;;;;;;21.60;54.46;101722.72;7269541;19;154352;-58
2022/10/07 10:58:27;;;;;;;;;;;;;;;21.59;54.66;101711.75;7275171;19;152779;-58
2022/10/07 11:01:02;;;;;;;;;;;;;;;21.56;54.85;101701.94;7276540;19;152872;-58
2022/10/07 11:03:47;;;;;;;;;;;;;;;21.56;54.34;101713.19;7275664;19;154099;-58
2022/10/07 11:06:15;;;;;;;;;;;;;;;21.57;54.25;101697.16;7284898;19;151993;-58
2022/10/07 11:08:44;;;;;;;;;;;;;;;21.56;54.21;101704.75;7276700;19;153639;-58
2022/10/07 11:11:15;;;;;;;;;;;;;;;21.55;54.34;101690.97;7277805;19;152648;-58
2022/10/07 11:13:47;;;;;;;;;;;;;;;21.53;54.64;101687.66;7279020;19;153209;-58
2022/10/07 11:16:23;;;;;;;;;;;;;;;21.51;54.58;101696.38;7274871;19;154356;-58
2022/10/07 11:19:02;;;;;;;;;;;;;;;21.53;54.33;101682.03;7281400;19;152418;-58
2022/10/07 11:21:49;;;;;;;;;;;;;;;21.50;54.66;101677.81;7279119;19;154764;-58
2022/10/07 11:24:25;;;;;;;;;;;;;;;21.51;54.18;101673.88;7274894;19;154521;-58
2022/10/07 11:27:13;;;;;;;;;;;;;;;21.49;54.21;101670.50;7280928;19;153173;-58
2022/10/07 11:29:48;;;;;;;;;;;;;;;21.49;54.42;101662.06;7287217;19;154123;-58
2022/10/07 11:32:20;;;;;;;;;;;;;;;21.49;54.19;101664.88;7282289;19;152196;-58
2022/10/07 11:34:56;;;;;;;;;;;;;;;21.46;54.41;101648.63;7280819;19;153669;-58
2022/10/07 11:37:32;;;;;;;;;;;;;;;21.46;54.57;101644.97;7280466;19;154018;-58
2022/10/07 11:40:02;;;;;;;;;;;;;;;21.45;54.55;101632.03;7282559;19;152896;-58
2022/10/07 11:42:32;;;;;;;;;;;;;;;21.42;54.44;101630.69;7278112;19;153071;-58
2022/10/07 11:45:00;;;;;;;;;;;;;;;21.41;54.23;101625.34;7277340;19;153873;-58
2022/10/07 11:47:30;;;;;;;;;;;;;;;21.38;54.42;101629.59;7280141;19;152094;-58
2022/10/07 11:50:09;;;;;;;;;;;;;;;21.39;54.61;101619.19;7279815;19;153645;-58
2022/10/07 11:52:42;;;;;;;;;;;;;;;21.36;54.30;101612.19;7288966;19;153414;-58
2022/10/07 11:55:14;;;;;;;;;;;;;;;21.37;54.27;101607.41;7278380;19;153121;-58
2022/10/07 11:57:42;;;;;;;;;;;;;;;21.36;54.02;101612.19;7273778;19;153781;-58
2022/10/07 12:00:28;;;;;;;;;;;;;;;21.38;53.99;101609.91;7280316;19;152355;-58
2022/10/07 12:02:55;;;;;;;;;;;;;;;21.37;53.86;101599.81;7279830;19;153567;-58
2022/10/07 12:05:34;;;;;;;;;;;;;;;21.37;54.10;101597.00;7278158;19;152525;-58
2022/10/07 12:08:20;;;;;;;;;;;;;;;21.36;53.73;101588.84;7280426;19;152228;-58
2022/10/07 12:10:52;;;;;;;;;;;;;;;21.37;54.16;101574.50;7278418;19;154306;-58
2022/10/07 12:13:21;;;;;;;;;;;;;;;21.37;54.17;101573.66;7277784;19;155069;-58
2022/10/07 12:15:48;;;;;;;;;;;;;;;21.38;53.94;101569.72;7285180;19;151964;-58
2022/10/07 12:18:18;;;;;;;;;;;;;;;21.37;53.78;101562.41;7279819;19;154109;-58
2022/10/07 12:20:51;;;;;;;;;;;;;;;21.37;53.91;101557.63;7279085;19;152826;-58
2022/10/07 12:23:21;;;;;;;;;;;;;;;21.37;53.93;101554.81;7277576;19;152095;-58
2022/10/07 12:25:49;;;;;;;;;;;;;;;21.37;53.75;101557.63;7272152;19;154115;-58
2022/10/07 12:28:22;;;;;;;;;;;;;;;21.41;52.94;101575.59;7278990;19;152441;-58
2022/10/07 12:30:54;;;;;;;;;;;;;;;21.47;52.79;101546.28;7275773;19;153204;-58
2022/10/07 12:33:26;;;;;;;;;;;;;;;21.42;53.06;101543.53;7274772;19;154788;-58
2022/10/07 12:35:53;;;;;;;;;;;;;;;21.41;53.14;101527.78;7276500;19;152910;-57
2022/10/07 12:38:22;;;;;;;;;;;;;;;21.40;53.08;101528.06;7275107;19;154229;-59
2022/10/07 12:41:02;;;;;;;;;;;;;;;21.39;53.22;101527.25;7275532;19;155946;-58
2022/10/07 12:43:49;;;;;;;;;;;;;;;21.40;53.63;101520.47;7281105;19;153264;-57
2022/10/07 12:46:18;;;;;;;;;;;;;;;21.39;53.48;101526.44;7279510;19;153942;-57
2022/10/07 12:49:05;;;;;;;;;;;;;;;21.37;53.45;101526.72;7280780;19;152128;-58
2022/10/07 12:51:38;;;;;;;;;;;;;;;21.37;53.34;101500.56;7279411;19;152970;-58
2022/10/07 12:54:11;;;;;;;;;;;;;;;21.36;53.26;101510.13;7278098;19;153317;-58
2022/10/07 12:56:41;;;;;;;;;;;;;;;21.37;53.49;101507.03;7276579;19;152119;-58
2022/10/07 13:02:07;;;;;;;;;;;;;;;21.36;52.94;101485.69;7264262;19;152792;-58